createdAt,value
2017-06-24T00:01:25.001Z,31.20
2017-06-24T00:03:55.700Z,31.30
2017-06-24T00:06:25.064Z,31.40
2017-06-24T00:08:54.546Z,31.30
2017-06-24T00:11:23.484Z,31.30
2017-06-24T00:13:52.120Z,31.40
2017-06-24T00:16:21.704Z,31.30
2017-06-24T00:18:51.044Z,31.30
2017-06-24T00:21:20.665Z,31.50
2017-06-24T00:23:50.244Z,31.40
2017-06-24T00:26:19.656Z,31.20
2017-06-24T00:28:49.323Z,31.10
2017-06-24T00:31:18.628Z,31.10
2017-06-24T00:33:47.464Z,31.10
2017-06-24T00:36:16.985Z,31.20
2017-06-24T00:38:46.379Z,31.30
2017-06-24T00:41:15.677Z,31.20
2017-06-24T00:43:44.979Z,31.20
2017-06-24T00:46:14.522Z,31.20
2017-06-24T00:48:44.311Z,31.20
2017-06-24T00:51:13.593Z,31.10
2017-06-24T00:53:42.971Z,31.10
2017-06-24T00:56:12.475Z,31.10
2017-06-24T00:58:42.053Z,31.20
2017-06-24T01:01:11.613Z,31.20
2017-06-24T01:03:41.431Z,31.20
2017-06-24T01:06:11.983Z,31.10
2017-06-24T01:08:41.265Z,31.20
2017-06-24T01:11:10.843Z,31.20
2017-06-24T01:13:40.427Z,31.20
2017-06-24T01:16:09.876Z,31.10
2017-06-24T01:18:39.167Z,31.00
2017-06-24T01:21:08.433Z,31.00
2017-06-24T01:23:38.213Z,31.00
2017-06-24T01:26:08.746Z,31.00
2017-06-24T01:28:39.093Z,30.80
2017-06-24T01:31:08.547Z,30.80
2017-06-24T01:33:38.108Z,30.80
2017-06-24T01:36:07.570Z,30.90
2017-06-24T01:38:36.720Z,30.80
2017-06-24T01:41:05.424Z,30.90
2017-06-24T01:43:34.793Z,31.00
2017-06-24T01:46:04.326Z,30.80
2017-06-24T01:48:34.401Z,30.80
2017-06-24T01:51:03.815Z,30.80
2017-06-24T01:53:33.465Z,30.80
2017-06-24T01:56:02.753Z,30.80
2017-06-24T01:58:32.021Z,30.70
2017-06-24T02:01:01.576Z,30.50
2017-06-24T02:03:31.337Z,30.50
2017-06-24T02:06:00.797Z,30.50
2017-06-24T02:08:37.846Z,30.40
2017-06-24T02:11:06.493Z,30.40
2017-06-24T02:13:35.205Z,30.30
2017-06-24T02:16:04.633Z,30.30
2017-06-24T02:18:33.961Z,30.20
2017-06-24T02:21:03.489Z,30.20
2017-06-24T02:23:33.291Z,30.20
2017-06-24T02:26:02.536Z,30.20
2017-06-24T02:28:31.239Z,30.20
2017-06-24T02:30:59.921Z,30.10
2017-06-24T02:33:29.431Z,30.10
2017-06-24T02:35:58.672Z,30.10
2017-06-24T02:38:28.149Z,29.90
2017-06-24T02:40:57.435Z,29.60
2017-06-24T02:43:27.212Z,29.50
2017-06-24T02:45:57.353Z,29.40
2017-06-24T02:48:27.004Z,29.30
2017-06-24T02:50:55.644Z,29.30
2017-06-24T02:53:24.617Z,29.20
2017-06-24T02:55:53.269Z,29.20
2017-06-24T02:58:21.904Z,29.10
2017-06-24T03:00:50.680Z,29.00
2017-06-24T03:03:20.321Z,29.00
2017-06-24T03:05:49.747Z,28.80
2017-06-24T03:08:18.545Z,28.60
2017-06-24T03:10:47.934Z,28.50
2017-06-24T03:13:16.559Z,28.50
2017-06-24T03:15:45.997Z,28.20
2017-06-24T03:18:15.261Z,28.20
2017-06-24T03:20:45.362Z,28.00
2017-06-24T03:23:14.950Z,28.00
2017-06-24T03:25:44.483Z,28.00
2017-06-24T03:28:13.450Z,27.90
2017-06-24T03:30:43.765Z,27.80
2017-06-24T03:33:12.498Z,27.70
2017-06-24T03:35:41.211Z,27.60
2017-06-24T03:38:10.995Z,27.50
2017-06-24T03:40:40.468Z,27.50
2017-06-24T03:43:09.965Z,27.30
2017-06-24T03:45:39.231Z,27.30
2017-06-24T03:48:09.008Z,27.20
2017-06-24T03:50:38.516Z,27.10
2017-06-24T03:53:07.971Z,27.10
2017-06-24T03:55:37.223Z,26.90
2017-06-24T03:58:06.649Z,26.80
2017-06-24T04:00:36.245Z,26.60
2017-06-24T04:03:05.538Z,26.50
2017-06-24T04:05:35.121Z,26.40
2017-06-24T04:08:03.896Z,26.30
2017-06-24T04:10:32.542Z,26.20
2017-06-24T04:13:02.477Z,26.20
2017-06-24T04:15:32.157Z,26.00
2017-06-24T04:18:01.594Z,26.00
2017-06-24T04:20:30.976Z,25.90
2017-06-24T04:23:00.616Z,25.80
2017-06-24T04:25:29.407Z,25.80
2017-06-24T04:27:58.099Z,25.70
2017-06-24T04:30:27.580Z,25.60
2017-06-24T04:32:56.806Z,25.50
2017-06-24T04:35:26.353Z,25.40
2017-06-24T04:37:55.779Z,25.30
2017-06-24T04:40:25.118Z,25.30
2017-06-24T04:42:54.425Z,25.20
2017-06-24T04:45:23.132Z,25.20
2017-06-24T04:47:51.830Z,25.00
2017-06-24T04:50:20.538Z,24.90
2017-06-24T04:52:50.232Z,24.90
2017-06-24T04:55:19.637Z,24.80
2017-06-24T04:57:49.324Z,24.70
2017-06-24T05:00:21.998Z,24.60
2017-06-24T05:02:51.731Z,24.60
2017-06-24T05:05:21.802Z,24.50
2017-06-24T05:07:50.558Z,24.50
2017-06-24T05:10:20.095Z,24.50
2017-06-24T05:12:49.543Z,24.40
2017-06-24T05:15:20.418Z,24.30
2017-06-24T05:17:49.880Z,24.30
2017-06-24T05:20:19.482Z,24.20
2017-06-24T05:22:49.160Z,24.20
2017-06-24T05:25:17.802Z,24.10
2017-06-24T05:27:47.062Z,24.00
2017-06-24T05:30:16.710Z,23.90
2017-06-24T05:32:46.255Z,23.80
2017-06-24T05:35:15.727Z,23.80
2017-06-24T05:37:45.169Z,23.70
2017-06-24T05:40:14.615Z,23.60
2017-06-24T05:42:44.881Z,23.60
2017-06-24T05:45:14.515Z,23.50
2017-06-24T05:47:43.820Z,23.50
2017-06-24T05:50:13.652Z,23.50
2017-06-24T05:52:44.177Z,23.30
2017-06-24T05:55:13.536Z,23.30
2017-06-24T05:57:42.971Z,23.30
2017-06-24T06:00:12.768Z,23.20
2017-06-24T06:02:41.929Z,23.20
2017-06-24T06:05:11.458Z,23.20
2017-06-24T06:07:41.102Z,23.20
2017-06-24T06:10:10.493Z,23.20
2017-06-24T06:12:40.088Z,23.10
2017-06-24T06:15:09.734Z,23.00
2017-06-24T06:17:41.718Z,22.90
2017-06-24T06:20:11.350Z,22.90
2017-06-24T06:22:40.882Z,22.80
2017-06-24T06:25:10.322Z,22.80
2017-06-24T06:27:40.700Z,22.60
2017-06-24T06:30:10.107Z,22.60
2017-06-24T06:32:39.623Z,22.60
2017-06-24T06:35:09.048Z,22.50
2017-06-24T06:37:39.387Z,22.40
2017-06-24T06:40:08.826Z,22.40
2017-06-24T06:42:38.446Z,22.40
2017-06-24T06:45:07.727Z,22.30
2017-06-24T06:47:37.074Z,22.30
2017-06-24T06:50:06.651Z,22.20
2017-06-24T06:52:36.049Z,22.20
2017-06-24T06:55:05.396Z,22.10
2017-06-24T06:57:34.099Z,22.00
2017-06-24T07:00:02.752Z,21.80
2017-06-24T07:02:31.423Z,21.70
2017-06-24T07:05:00.109Z,21.70
2017-06-24T07:07:29.623Z,21.70
2017-06-24T07:09:59.106Z,21.60
2017-06-24T07:12:28.638Z,21.60
2017-06-24T07:14:57.811Z,21.60
2017-06-24T07:17:27.220Z,21.50
2017-06-24T07:19:58.328Z,21.50
2017-06-24T07:22:35.316Z,21.50
2017-06-24T07:25:04.697Z,21.50
2017-06-24T07:27:34.231Z,21.50
2017-06-24T07:30:03.574Z,21.50
2017-06-24T07:32:33.010Z,21.40
2017-06-24T07:35:02.559Z,21.40
2017-06-24T07:37:32.329Z,21.30
2017-06-24T07:40:02.722Z,21.30
2017-06-24T07:42:32.243Z,21.20
2017-06-24T07:45:01.630Z,21.10
2017-06-24T07:47:31.337Z,21.10
2017-06-24T07:50:00.842Z,21.10
2017-06-24T07:52:30.464Z,21.00
2017-06-24T07:54:59.738Z,21.00
2017-06-24T07:57:29.403Z,20.90
2017-06-24T07:59:58.706Z,20.90
2017-06-24T08:02:28.143Z,20.90
2017-06-24T08:04:57.342Z,20.90
2017-06-24T08:07:26.951Z,20.90
2017-06-24T08:09:56.433Z,20.80
2017-06-24T08:12:25.800Z,20.80
2017-06-24T08:14:55.440Z,20.60
2017-06-24T08:17:25.148Z,20.50
2017-06-24T08:19:54.545Z,20.40
2017-06-24T08:22:24.848Z,20.40
2017-06-24T08:24:54.667Z,20.30
2017-06-24T08:27:24.211Z,20.20
2017-06-24T08:29:53.356Z,20.30
2017-06-24T08:32:22.957Z,20.10
2017-06-24T08:34:52.608Z,20.10
2017-06-24T08:37:22.312Z,20.10
2017-06-24T08:39:51.602Z,20.10
2017-06-24T08:42:21.815Z,20.00
2017-06-24T08:44:52.273Z,19.90
2017-06-24T08:47:21.573Z,19.90
2017-06-24T08:49:50.980Z,19.80
2017-06-24T08:52:20.396Z,19.80
2017-06-24T08:54:49.568Z,19.80
2017-06-24T08:57:19.195Z,19.70
2017-06-24T08:59:48.431Z,19.70
2017-06-24T09:02:17.880Z,19.50
2017-06-24T09:04:47.167Z,19.30
2017-06-24T09:07:16.716Z,19.00
2017-06-24T09:09:45.890Z,18.90
2017-06-24T09:12:15.569Z,18.80
2017-06-24T09:14:45.838Z,18.50
2017-06-24T09:17:15.421Z,18.50
2017-06-24T09:19:44.655Z,18.40
2017-06-24T09:22:14.114Z,18.40
2017-06-24T09:24:44.768Z,18.50
2017-06-24T09:27:14.550Z,18.60
2017-06-24T09:29:43.799Z,18.40
2017-06-24T09:32:13.187Z,18.20
2017-06-24T09:34:42.543Z,18.10
2017-06-24T09:37:11.899Z,18.00
2017-06-24T09:39:41.223Z,17.90
2017-06-24T09:42:10.677Z,17.90
2017-06-24T09:44:40.279Z,17.80
2017-06-24T09:47:09.567Z,17.80
2017-06-24T09:49:38.927Z,17.80
2017-06-24T09:52:08.528Z,17.80
2017-06-24T09:54:37.969Z,17.80
2017-06-24T09:57:07.488Z,17.80
2017-06-24T09:59:36.822Z,17.80
2017-06-24T10:02:06.228Z,17.80
2017-06-24T10:04:35.775Z,17.90
2017-06-24T10:07:05.203Z,17.90
2017-06-24T10:09:34.515Z,18.00
2017-06-24T10:12:04.105Z,18.00
2017-06-24T10:14:33.558Z,18.10
2017-06-24T10:17:02.875Z,18.10
2017-06-24T10:19:32.520Z,18.10
2017-06-24T10:22:02.700Z,18.20
2017-06-24T10:24:32.199Z,18.20
2017-06-24T10:27:02.586Z,18.20
2017-06-24T10:29:32.910Z,18.20
2017-06-24T10:32:02.313Z,18.20
2017-06-24T10:34:31.957Z,18.20
2017-06-24T10:37:01.514Z,18.10
2017-06-24T10:39:31.227Z,18.00
2017-06-24T10:42:01.554Z,17.90
2017-06-24T10:44:31.116Z,17.90
2017-06-24T10:47:00.430Z,17.90
2017-06-24T10:49:29.859Z,17.80
2017-06-24T10:51:59.338Z,17.60
2017-06-24T10:54:28.812Z,17.60
2017-06-24T10:56:58.215Z,17.50
2017-06-24T10:59:27.595Z,17.40
2017-06-24T11:01:57.167Z,17.30
2017-06-24T11:04:26.290Z,17.30
2017-06-24T11:06:55.625Z,17.30
2017-06-24T11:09:24.995Z,17.20
2017-06-24T11:11:55.266Z,17.10
2017-06-24T11:14:24.773Z,17.10
2017-06-24T11:16:54.146Z,17.20
2017-06-24T11:19:23.562Z,17.20
2017-06-24T11:21:53.094Z,17.20
2017-06-24T11:24:22.471Z,17.10
2017-06-24T11:26:51.882Z,17.10
2017-06-24T11:29:22.005Z,17.00
2017-06-24T11:31:51.532Z,16.90
2017-06-24T11:34:20.577Z,16.80
2017-06-24T11:36:50.314Z,16.80
2017-06-24T11:39:20.016Z,16.70
2017-06-24T11:41:49.529Z,16.60
2017-06-24T11:44:19.141Z,16.60
2017-06-24T11:46:48.469Z,16.50
2017-06-24T11:49:17.850Z,16.40
2017-06-24T11:51:47.216Z,16.40
2017-06-24T11:54:16.405Z,16.40
2017-06-24T11:56:46.421Z,16.50
2017-06-24T11:59:16.118Z,16.50
2017-06-24T12:01:45.680Z,16.60
2017-06-24T12:04:15.326Z,16.50
2017-06-24T12:06:44.567Z,16.40
2017-06-24T12:09:14.268Z,16.30
2017-06-24T12:11:43.823Z,16.30
2017-06-24T12:14:13.502Z,16.40
2017-06-24T12:16:42.835Z,16.40
2017-06-24T12:19:12.288Z,16.40
2017-06-24T12:21:41.692Z,16.50
2017-06-24T12:24:11.304Z,16.50
2017-06-24T12:26:40.850Z,16.50
2017-06-24T12:29:10.621Z,16.30
2017-06-24T12:31:41.010Z,16.30
2017-06-24T12:34:10.675Z,16.20
2017-06-24T12:36:39.939Z,16.20
2017-06-24T12:39:09.359Z,16.30
2017-06-24T12:41:38.871Z,16.30
2017-06-24T12:44:08.448Z,16.20
2017-06-24T12:46:37.642Z,16.20
2017-06-24T12:49:07.003Z,16.30
2017-06-24T12:51:36.462Z,16.10
2017-06-24T12:54:05.806Z,16.10
2017-06-24T12:56:35.252Z,16.20
2017-06-24T12:59:04.500Z,16.20
2017-06-24T13:01:34.092Z,16.20
2017-06-24T13:04:03.729Z,16.20
2017-06-24T13:06:33.016Z,16.30
2017-06-24T13:09:02.757Z,16.40
2017-06-24T13:11:32.198Z,16.50
2017-06-24T13:14:01.439Z,16.60
2017-06-24T13:16:30.847Z,16.70
2017-06-24T13:19:00.567Z,16.80
2017-06-24T13:21:29.842Z,16.80
2017-06-24T13:23:59.497Z,16.80
2017-06-24T13:26:28.975Z,16.90
2017-06-24T13:28:58.559Z,17.00
2017-06-24T13:31:28.157Z,17.20
2017-06-24T13:33:58.488Z,17.30
2017-06-24T13:36:27.783Z,17.40
2017-06-24T13:38:57.118Z,17.60
2017-06-24T13:41:26.650Z,17.70
2017-06-24T13:43:56.214Z,17.80
2017-06-24T13:46:25.614Z,17.90
2017-06-24T13:48:55.070Z,18.00
2017-06-24T13:51:24.539Z,18.10
2017-06-24T13:53:53.849Z,18.40
2017-06-24T13:56:23.344Z,18.50
2017-06-24T13:58:52.501Z,18.50
2017-06-24T14:01:22.031Z,18.60
2017-06-24T14:03:51.503Z,18.70
2017-06-24T14:06:20.221Z,18.80
2017-06-24T14:08:49.354Z,18.90
2017-06-24T14:11:18.644Z,19.00
2017-06-24T14:13:47.897Z,19.20
2017-06-24T14:16:17.515Z,19.30
2017-06-24T14:18:47.113Z,19.30
2017-06-24T14:21:16.764Z,19.40
2017-06-24T14:23:46.307Z,19.50
2017-06-24T14:26:15.658Z,19.60
2017-06-24T14:28:45.140Z,19.70
2017-06-24T14:31:14.559Z,19.80
2017-06-24T14:33:43.844Z,19.90
2017-06-24T14:36:14.292Z,20.00
2017-06-24T14:38:44.014Z,20.10
2017-06-24T14:41:13.665Z,20.30
2017-06-24T14:43:43.821Z,21.50
2017-06-24T14:46:13.355Z,21.40
2017-06-24T14:48:43.063Z,22.40
2017-06-24T14:51:12.304Z,23.50
2017-06-24T14:53:41.832Z,24.70
2017-06-24T14:56:11.013Z,25.80
2017-06-24T14:58:41.338Z,26.60
2017-06-24T15:01:10.845Z,26.50
2017-06-24T15:03:40.453Z,26.70
2017-06-24T15:06:09.760Z,27.10
2017-06-24T15:08:38.910Z,27.50
2017-06-24T15:11:08.086Z,28.10
2017-06-24T15:13:37.562Z,28.30
2017-06-24T15:16:07.043Z,29.30
2017-06-24T15:18:36.234Z,30.50
2017-06-24T15:21:05.728Z,31.30
2017-06-24T15:23:35.113Z,32.70
2017-06-24T15:26:04.460Z,33.20
2017-06-24T15:28:34.935Z,34.90
2017-06-24T15:31:04.555Z,34.80
2017-06-24T15:33:34.115Z,36.20
2017-06-24T15:36:03.706Z,36.90
2017-06-24T15:38:34.196Z,37.30
2017-06-24T15:41:03.743Z,39.00
2017-06-24T15:43:32.887Z,38.80
2017-06-24T15:46:02.366Z,39.60
2017-06-24T15:48:32.067Z,38.50
2017-06-24T15:51:01.378Z,39.20
2017-06-24T15:53:30.901Z,40.20
2017-06-24T15:56:00.664Z,42.10
2017-06-24T15:58:30.881Z,42.90
2017-06-24T16:01:01.065Z,43.10
2017-06-24T16:03:30.486Z,43.00
2017-06-24T16:05:59.176Z,43.70
2017-06-24T16:08:28.767Z,45.00
2017-06-24T16:11:05.982Z,45.10
2017-06-24T16:13:35.523Z,44.00
2017-06-24T16:16:05.142Z,44.40
2017-06-24T16:18:34.656Z,45.10
2017-06-24T16:21:04.074Z,44.00
2017-06-24T16:23:33.399Z,45.30
2017-06-24T16:26:02.688Z,45.50
2017-06-24T16:28:32.245Z,45.30
2017-06-24T16:31:02.058Z,46.20
2017-06-24T16:33:31.652Z,46.30
2017-06-24T16:36:01.468Z,46.40
2017-06-24T16:38:31.611Z,44.20
2017-06-24T16:41:01.809Z,44.10
2017-06-24T16:43:31.419Z,43.60
2017-06-24T16:46:01.091Z,44.80
2017-06-24T16:48:30.590Z,45.20
2017-06-24T16:51:00.324Z,45.70
2017-06-24T16:53:29.574Z,47.30
2017-06-24T16:55:59.119Z,47.30
2017-06-24T16:58:28.562Z,46.80
2017-06-24T17:00:57.884Z,46.70
2017-06-24T17:03:27.216Z,45.90
2017-06-24T17:05:56.698Z,43.90
2017-06-24T17:08:26.215Z,44.50
2017-06-24T17:10:55.903Z,45.70
2017-06-24T17:13:25.570Z,46.30
2017-06-24T17:15:55.629Z,47.80
2017-06-24T17:18:24.963Z,47.70
2017-06-24T17:20:54.479Z,46.40
2017-06-24T17:23:23.842Z,47.40
2017-06-24T17:25:53.104Z,47.80
2017-06-24T17:28:22.607Z,45.70
2017-06-24T17:30:52.592Z,45.90
2017-06-24T17:33:21.936Z,45.90
2017-06-24T17:35:51.362Z,47.30
2017-06-24T17:38:20.894Z,47.40
2017-06-24T17:40:50.555Z,45.40
2017-06-24T17:43:21.990Z,45.30
2017-06-24T17:45:52.663Z,43.80
2017-06-24T17:48:22.019Z,43.80
2017-06-24T17:50:51.365Z,44.70
2017-06-24T17:53:20.838Z,43.80
2017-06-24T17:55:51.195Z,45.10
2017-06-24T17:58:20.613Z,45.10
2017-06-24T18:00:50.063Z,46.30
2017-06-24T18:03:19.364Z,47.30
2017-06-24T18:05:48.735Z,49.30
2017-06-24T18:08:18.012Z,48.50
2017-06-24T18:10:47.701Z,48.50
2017-06-24T18:13:17.229Z,49.10
2017-06-24T18:15:46.708Z,47.80
2017-06-24T18:18:15.955Z,48.10
2017-06-24T18:20:45.458Z,48.30
2017-06-24T18:23:15.099Z,48.80
2017-06-24T18:25:44.421Z,48.00
2017-06-24T18:28:13.742Z,47.70
2017-06-24T18:30:43.251Z,48.40
2017-06-24T18:33:12.538Z,48.50
2017-06-24T18:35:42.039Z,48.80
2017-06-24T18:38:11.446Z,48.80
2017-06-24T18:40:40.786Z,50.10
2017-06-24T18:43:10.226Z,50.60
2017-06-24T18:45:40.876Z,46.90
2017-06-24T18:48:10.441Z,46.80
2017-06-24T18:50:39.811Z,47.80
2017-06-24T18:53:09.353Z,48.50
2017-06-24T18:55:38.563Z,46.30
2017-06-24T18:58:07.704Z,44.50
2017-06-24T19:00:37.045Z,43.50
2017-06-24T19:03:06.894Z,42.40
2017-06-24T19:05:36.104Z,42.00
2017-06-24T19:08:05.389Z,40.60
2017-06-24T19:10:35.809Z,41.50
2017-06-24T19:13:05.194Z,41.50
2017-06-24T19:15:34.466Z,41.90
2017-06-24T19:18:03.864Z,41.50
2017-06-24T19:20:33.114Z,42.40
2017-06-24T19:23:03.131Z,40.60
2017-06-24T19:25:32.709Z,40.60
2017-06-24T19:28:02.110Z,40.90
2017-06-24T19:30:31.746Z,41.20
2017-06-24T19:33:01.350Z,40.90
2017-06-24T19:35:31.070Z,39.00
2017-06-24T19:38:01.142Z,37.00
2017-06-24T19:40:30.805Z,37.00
2017-06-24T19:43:00.321Z,36.90
2017-06-24T19:45:29.891Z,37.40
2017-06-24T19:48:00.922Z,37.80
2017-06-24T19:50:30.659Z,37.80
2017-06-24T19:52:59.824Z,37.50
2017-06-24T19:55:29.361Z,37.40
2017-06-24T19:57:58.960Z,37.20
2017-06-24T20:00:28.278Z,35.90
2017-06-24T20:02:57.677Z,35.00
2017-06-24T20:05:27.803Z,34.20
2017-06-24T20:07:57.317Z,34.20
2017-06-24T20:10:26.643Z,34.40
2017-06-24T20:12:56.010Z,34.50
2017-06-24T20:15:25.681Z,34.30
2017-06-24T20:17:55.154Z,34.40
2017-06-24T20:20:24.879Z,34.50
2017-06-24T20:22:54.410Z,34.60
2017-06-24T20:25:23.752Z,34.50
2017-06-24T20:27:53.464Z,34.30
2017-06-24T20:30:22.782Z,33.90
2017-06-24T20:32:52.315Z,34.10
2017-06-24T20:35:21.907Z,34.30
2017-06-24T20:37:51.409Z,34.30
2017-06-24T20:40:24.166Z,34.40
2017-06-24T20:42:53.637Z,34.30
2017-06-24T20:45:23.057Z,34.30
2017-06-24T20:47:52.640Z,34.30
2017-06-24T20:50:23.294Z,34.30
2017-06-24T20:52:53.651Z,34.30
2017-06-24T20:55:23.078Z,34.20
2017-06-24T20:57:52.564Z,34.30
2017-06-24T21:00:22.261Z,34.40
2017-06-24T21:02:51.952Z,34.30
2017-06-24T21:05:22.103Z,34.10
2017-06-24T21:07:51.614Z,34.10
2017-06-24T21:10:21.042Z,34.20
2017-06-24T21:12:50.507Z,34.20
2017-06-24T21:15:19.977Z,34.20
2017-06-24T21:17:49.484Z,34.00
2017-06-24T21:20:18.750Z,34.20
2017-06-24T21:22:47.993Z,34.30
2017-06-24T21:25:17.790Z,34.50
2017-06-24T21:27:47.444Z,34.60
2017-06-24T21:30:16.948Z,34.70
2017-06-24T21:32:46.379Z,34.60
2017-06-24T21:35:15.753Z,34.30
2017-06-24T21:37:45.498Z,34.30
2017-06-24T21:40:14.797Z,34.60
2017-06-24T21:42:44.429Z,34.60
2017-06-24T21:45:14.905Z,34.70
2017-06-24T21:47:44.432Z,34.60
2017-06-24T21:50:14.066Z,34.70
2017-06-24T21:52:44.638Z,34.50
2017-06-24T21:55:14.326Z,34.50
2017-06-24T21:57:44.828Z,34.50
2017-06-24T22:00:14.481Z,34.50
2017-06-24T22:02:44.017Z,34.70
2017-06-24T22:05:13.526Z,34.80
2017-06-24T22:07:43.171Z,34.60
2017-06-24T22:10:12.591Z,34.60
2017-06-24T22:12:42.951Z,34.90
2017-06-24T22:15:12.468Z,34.80
2017-06-24T22:17:41.749Z,34.70
2017-06-24T22:20:11.298Z,34.70
2017-06-24T22:22:40.699Z,34.70
2017-06-24T22:25:10.140Z,34.70
2017-06-24T22:27:39.460Z,34.60
2017-06-24T22:30:08.965Z,34.60
2017-06-24T22:32:38.902Z,34.70
2017-06-24T22:35:08.571Z,34.70
2017-06-24T22:37:37.914Z,34.80
2017-06-24T22:40:07.560Z,34.90
2017-06-24T22:42:37.095Z,34.90
2017-06-24T22:45:06.641Z,34.90
2017-06-24T22:47:36.130Z,34.80
2017-06-24T22:50:05.601Z,34.90
2017-06-24T22:52:35.106Z,34.80
2017-06-24T22:55:05.778Z,34.80
2017-06-24T22:57:35.402Z,34.90
2017-06-24T23:00:05.320Z,35.00
2017-06-24T23:02:34.893Z,35.00
2017-06-24T23:05:04.598Z,34.90
2017-06-24T23:07:33.895Z,34.90
2017-06-24T23:10:03.273Z,35.00
2017-06-24T23:12:32.695Z,35.00
2017-06-24T23:15:02.260Z,34.90
2017-06-24T23:17:31.810Z,34.80
2017-06-24T23:20:01.511Z,34.80
2017-06-24T23:22:31.016Z,34.80
2017-06-24T23:25:00.945Z,34.90
2017-06-24T23:27:30.264Z,35.00
2017-06-24T23:30:00.248Z,35.10
2017-06-24T23:32:30.121Z,35.10
2017-06-24T23:34:59.477Z,35.10
2017-06-24T23:37:29.176Z,34.90
2017-06-24T23:39:59.669Z,35.00
2017-06-24T23:42:29.115Z,35.00
2017-06-24T23:44:58.767Z,35.10
2017-06-24T23:47:28.127Z,35.20
2017-06-24T23:49:57.823Z,35.00
2017-06-24T23:52:35.217Z,35.10
2017-06-24T23:55:06.274Z,35.10
2017-06-24T23:57:35.527Z,35.10
